Trail Creek, Indiana
Current Conditions -  °F | °C
As of 7:35 AM on Thursday 30 Oct 2014 (Local Time) from KMGC Reporting Station
Clear Clear  
Wind Chill:   Ceiling: Unl
Heat Index:   Visibility: 10mi
Dew Point: -1°   Wind: 3mph
Humidity: 75%   Direction: 210°SSW
Pressure: 30.15"   Gusts: NA
Location:  41.687°N, 86.8677°W
Report Text: KMGC 301235Z AUTO 21003KT 10SM CLR 03/M01 A3015 RMK AO2
Loading
Personal Weather Stations






























Interactive Weather Map
Tropical Storm Tracking
New forecast layout! Learn more

10-Day Weather Forecast

Advertisements
Track Severe Weather on mobile